createdAt,value
2022-12-27T00:00:58.468Z,4.25
2022-12-27T00:02:01.672Z,4.60
2022-12-27T00:03:05.349Z,5.45
2022-12-27T00:04:12.985Z,5.77
2022-12-27T00:05:19.447Z,4.95
2022-12-27T00:06:26.674Z,3.95
2022-12-27T00:07:33.669Z,4.72
2022-12-27T00:08:41.207Z,6.70
2022-12-27T00:09:51.154Z,4.45
2022-12-27T00:11:01.524Z,4.65
2022-12-27T00:12:12.296Z,4.20
2022-12-27T00:13:15.771Z,5.88
2022-12-27T00:14:23.365Z,5.40
2022-12-27T00:15:27.766Z,4.70
2022-12-27T00:16:35.082Z,4.15
2022-12-27T00:17:40.311Z,3.67
2022-12-27T00:18:57.772Z,6.35
2022-12-27T00:20:05.356Z,5.38
2022-12-27T00:21:15.356Z,5.85
2022-12-27T00:22:22.468Z,3.97
2022-12-27T00:23:34.536Z,6.18
2022-12-27T00:24:49.740Z,6.03
2022-12-27T00:25:56.597Z,4.60
2022-12-27T00:27:05.598Z,3.97
2022-12-27T00:28:13.397Z,4.90
2022-12-27T00:29:18.718Z,4.72
2022-12-27T00:30:25.721Z,6.38
2022-12-27T00:31:34.247Z,5.75
2022-12-27T00:32:38.699Z,6.05
2022-12-27T00:33:46.458Z,4.85
2022-12-27T00:34:57.317Z,5.43
2022-12-27T00:36:06.312Z,7.03
2022-12-27T00:37:13.365Z,5.10
2022-12-27T00:38:16.341Z,6.47
2022-12-27T00:39:23.992Z,5.38
2022-12-27T00:40:39.062Z,4.88
2022-12-27T00:41:43.136Z,5.72
2022-12-27T00:43:00.228Z,6.72
2022-12-27T00:44:07.951Z,5.88
2022-12-27T00:45:15.138Z,6.40
2022-12-27T00:46:23.090Z,6.00
2022-12-27T00:47:28.017Z,6.15
2022-12-27T00:48:37.014Z,5.55
2022-12-27T00:49:40.275Z,7.38
2022-12-27T00:50:44.031Z,4.50
2022-12-27T00:51:48.961Z,5.68
2022-12-27T00:52:55.366Z,6.43
2022-12-27T00:54:00.524Z,6.03
2022-12-27T00:55:11.376Z,5.90
2022-12-27T00:56:26.850Z,5.70
2022-12-27T00:57:31.721Z,5.75
2022-12-27T00:58:41.129Z,6.60
2022-12-27T00:59:45.282Z,5.20
2022-12-27T01:00:53.884Z,6.55
2022-12-27T01:02:01.246Z,7.10
2022-12-27T01:03:11.398Z,7.88
2022-12-27T01:04:19.675Z,7.35
2022-12-27T01:05:27.631Z,8.35
2022-12-27T01:06:37.448Z,7.50
2022-12-27T01:07:42.116Z,6.45
2022-12-27T01:08:48.027Z,6.50
2022-12-27T01:09:54.397Z,7.88
2022-12-27T01:11:06.520Z,8.38
2022-12-27T01:12:10.333Z,7.18
2022-12-27T01:13:15.343Z,5.60
2022-12-27T01:14:21.154Z,7.18
2022-12-27T01:15:32.811Z,6.20
2022-12-27T01:16:40.160Z,7.72
2022-12-27T01:17:59.029Z,7.15
2022-12-27T01:19:05.671Z,8.40
2022-12-27T01:20:10.084Z,6.82
2022-12-27T01:21:17.888Z,4.63
2022-12-27T01:22:23.628Z,6.18
2022-12-27T01:23:29.002Z,4.72
2022-12-27T01:24:37.442Z,5.30
2022-12-27T01:25:45.936Z,5.88
2022-12-27T01:26:56.322Z,4.88
2022-12-27T01:28:06.187Z,4.22
2022-12-27T01:29:16.788Z,5.55
2022-12-27T01:30:24.536Z,5.65
2022-12-27T01:31:28.740Z,6.93
2022-12-27T01:32:41.772Z,6.45
2022-12-27T01:33:44.848Z,5.35
2022-12-27T01:34:55.088Z,5.38
2022-12-27T01:36:06.057Z,5.47
2022-12-27T01:37:15.407Z,7.25
2022-12-27T01:38:23.708Z,5.75
2022-12-27T01:39:38.375Z,5.10
2022-12-27T01:40:48.769Z,6.15
2022-12-27T01:42:11.523Z,7.47
2022-12-27T01:43:22.311Z,4.72
2022-12-27T01:44:53.620Z,4.30
2022-12-27T01:46:02.334Z,4.63
2022-12-27T01:47:18.225Z,4.35
2022-12-27T01:48:26.169Z,4.20
2022-12-27T01:49:33.963Z,4.20
2022-12-27T01:51:01.470Z,4.15
2022-12-27T01:52:07.257Z,5.22
2022-12-27T01:53:25.743Z,5.03
2022-12-27T01:54:35.093Z,5.93
2022-12-27T01:56:08.941Z,5.72
2022-12-27T01:57:19.638Z,3.78
2022-12-27T01:58:44.066Z,4.40
2022-12-27T01:59:55.315Z,5.13
2022-12-27T02:01:04.592Z,5.18
2022-12-27T02:02:14.227Z,5.50
2022-12-27T02:03:41.819Z,5.68
2022-12-27T02:04:47.917Z,6.05
2022-12-27T02:05:54.243Z,5.43
2022-12-27T02:06:58.592Z,4.57
2022-12-27T02:08:20.425Z,5.07
2022-12-27T02:09:43.700Z,4.82
2022-12-27T02:11:07.794Z,5.45
2022-12-27T02:12:18.882Z,6.60
2022-12-27T02:13:26.308Z,7.72
2022-12-27T02:14:48.059Z,5.85
2022-12-27T02:15:53.375Z,7.05
2022-12-27T02:16:59.410Z,5.65
2022-12-27T02:18:06.220Z,5.13
2022-12-27T02:19:20.537Z,5.97
2022-12-27T02:20:28.285Z,5.35
2022-12-27T02:22:10.359Z,5.55
2022-12-27T02:24:09.429Z,6.20
2022-12-27T02:25:39.548Z,5.63
2022-12-27T02:26:54.622Z,5.57
2022-12-27T02:28:24.107Z,5.20
2022-12-27T02:29:42.502Z,5.40
2022-12-27T02:30:54.206Z,5.93
2022-12-27T02:32:32.264Z,5.93
2022-12-27T02:33:44.196Z,5.72
2022-12-27T02:35:13.724Z,6.53
2022-12-27T02:36:28.181Z,5.32
2022-12-27T02:37:36.079Z,9.90
2022-12-27T02:38:48.279Z,7.40
2022-12-27T02:40:22.941Z,6.53
2022-12-27T02:41:51.438Z,5.40
2022-12-27T02:43:16.385Z,6.97
2022-12-27T02:44:40.176Z,4.35
2022-12-27T02:46:41.111Z,5.22
2022-12-27T02:48:16.938Z,5.70
2022-12-27T02:49:58.763Z,5.78
2022-12-27T02:51:43.253Z,6.13
2022-12-27T02:53:26.808Z,5.38
2022-12-27T02:55:20.281Z,7.57
2022-12-27T02:57:17.432Z,4.97
2022-12-27T02:59:00.677Z,5.72
2022-12-27T03:00:48.000Z,4.93
2022-12-27T03:02:29.627Z,3.50
2022-12-27T03:03:56.016Z,4.57
2022-12-27T03:05:13.687Z,4.50
2022-12-27T03:06:54.180Z,4.10
2022-12-27T03:08:15.854Z,7.03
2022-12-27T03:10:01.852Z,5.30
2022-12-27T03:11:24.105Z,4.07
2022-12-27T03:13:09.939Z,5.93
2022-12-27T03:14:47.634Z,6.07
2022-12-27T03:16:04.537Z,7.88
2022-12-27T03:17:16.417Z,4.10
2022-12-27T03:18:28.584Z,4.18
2022-12-27T03:20:09.193Z,4.50
2022-12-27T03:21:38.045Z,5.72
2022-12-27T03:23:05.768Z,5.25
2022-12-27T03:24:33.241Z,5.82
2022-12-27T03:25:38.753Z,4.07
2022-12-27T03:26:52.984Z,2.30
2022-12-27T03:28:48.208Z,6.38
2022-12-27T03:30:16.790Z,5.03
2022-12-27T03:31:48.408Z,5.80
2022-12-27T03:33:16.263Z,4.95
2022-12-27T03:34:36.469Z,3.40
2022-12-27T03:36:18.673Z,4.38
2022-12-27T03:37:51.219Z,4.55
2022-12-27T03:39:16.343Z,3.97
2022-12-27T03:40:36.935Z,4.43
2022-12-27T03:42:14.812Z,5.07
2022-12-27T03:43:18.101Z,5.70
2022-12-27T03:44:27.440Z,5.47
2022-12-27T03:46:20.300Z,5.15
2022-12-27T03:47:43.726Z,4.35
2022-12-27T03:49:15.226Z,5.60
2022-12-27T03:50:46.436Z,8.30
2022-12-27T03:52:02.406Z,5.32
2022-12-27T03:53:30.853Z,5.93
2022-12-27T03:54:39.841Z,5.75
2022-12-27T03:55:45.533Z,5.07
2022-12-27T03:56:55.395Z,6.68
2022-12-27T03:58:07.473Z,4.13
2022-12-27T03:59:22.792Z,5.43
2022-12-27T04:00:26.144Z,4.80
2022-12-27T04:01:33.224Z,5.57
2022-12-27T04:02:37.592Z,4.47
2022-12-27T04:03:44.180Z,6.97
2022-12-27T04:05:11.180Z,5.18
2022-12-27T04:06:19.857Z,6.57
2022-12-27T04:07:21.972Z,3.85
2022-12-27T04:08:46.999Z,5.75
2022-12-27T04:10:11.233Z,5.03
2022-12-27T04:11:33.732Z,10.23
2022-12-27T04:12:54.046Z,5.60
2022-12-27T04:14:14.553Z,7.68
2022-12-27T04:15:39.240Z,4.28
2022-12-27T04:17:01.685Z,6.80
2022-12-27T04:18:27.022Z,5.70
2022-12-27T04:19:49.024Z,5.80
2022-12-27T04:21:11.831Z,5.20
2022-12-27T04:22:41.079Z,5.03
2022-12-27T04:24:07.182Z,4.60
2022-12-27T04:25:38.128Z,4.10
2022-12-27T04:27:02.240Z,6.60
2022-12-27T04:28:26.190Z,5.57
2022-12-27T04:29:55.316Z,6.80
2022-12-27T04:31:22.678Z,5.07
2022-12-27T04:32:45.679Z,5.00
2022-12-27T04:34:18.373Z,7.22
2022-12-27T04:35:23.827Z,6.35
2022-12-27T04:36:39.468Z,6.65
2022-12-27T04:37:44.439Z,5.30
2022-12-27T04:38:47.729Z,5.07
2022-12-27T04:40:10.797Z,7.97
2022-12-27T04:41:32.799Z,6.32
2022-12-27T04:42:58.270Z,6.70
2022-12-27T04:44:28.989Z,6.53
2022-12-27T04:45:57.086Z,5.70
2022-12-27T04:47:22.108Z,6.75
2022-12-27T04:48:51.199Z,4.72
2022-12-27T04:50:17.694Z,8.32
2022-12-27T04:51:40.543Z,5.20
2022-12-27T04:53:22.684Z,7.05
2022-12-27T04:54:45.904Z,4.97
2022-12-27T04:55:51.159Z,6.32
2022-12-27T04:56:56.378Z,6.05
2022-12-27T04:58:02.340Z,7.18
2022-12-27T04:59:27.636Z,5.60
2022-12-27T05:00:52.892Z,8.05
2022-12-27T05:02:04.619Z,6.20
2022-12-27T05:03:23.840Z,7.57
2022-12-27T05:04:33.149Z,5.93
2022-12-27T05:05:44.711Z,7.07
2022-12-27T05:06:52.545Z,6.38
2022-12-27T05:08:24.835Z,6.13
2022-12-27T05:09:50.501Z,4.97
2022-12-27T05:11:15.916Z,6.32
2022-12-27T05:12:39.546Z,9.95
2022-12-27T05:14:01.633Z,6.50
2022-12-27T05:15:08.557Z,6.05
2022-12-27T05:16:18.082Z,5.65
2022-12-27T05:17:24.430Z,5.82
2022-12-27T05:18:29.696Z,5.53
2022-12-27T05:19:37.272Z,4.85
2022-12-27T05:20:43.838Z,5.03
2022-12-27T05:22:06.634Z,5.13
2022-12-27T05:23:32.409Z,5.07
2022-12-27T05:24:59.961Z,3.90
2022-12-27T05:26:07.583Z,4.22
2022-12-27T05:27:16.021Z,5.07
2022-12-27T05:28:22.203Z,7.28
2022-12-27T05:29:30.274Z,6.28
2022-12-27T05:30:43.958Z,6.75
2022-12-27T05:31:50.924Z,7.55
2022-12-27T05:33:01.504Z,6.22
2022-12-27T05:34:07.919Z,5.78
2022-12-27T05:35:13.450Z,4.30
2022-12-27T05:36:19.143Z,5.13
2022-12-27T05:37:26.332Z,5.32
2022-12-27T05:38:33.801Z,8.05
2022-12-27T05:39:38.494Z,8.98
2022-12-27T05:40:44.983Z,3.45
2022-12-27T05:41:47.134Z,4.90
2022-12-27T05:42:49.959Z,7.00
2022-12-27T05:43:54.256Z,5.63
2022-12-27T05:44:59.109Z,4.63
2022-12-27T05:46:09.383Z,8.77
2022-12-27T05:47:13.251Z,6.50
2022-12-27T05:48:26.070Z,5.45
2022-12-27T05:49:32.629Z,9.98
2022-12-27T05:50:38.859Z,5.75
2022-12-27T05:51:44.581Z,6.70
2022-12-27T05:52:49.256Z,6.10
2022-12-27T05:53:55.715Z,5.65
2022-12-27T05:55:07.047Z,5.32
2022-12-27T05:56:20.192Z,6.43
2022-12-27T05:57:23.393Z,4.97
2022-12-27T05:58:26.231Z,6.63
2022-12-27T05:59:35.843Z,5.25
2022-12-27T06:00:40.301Z,9.00
2022-12-27T06:01:45.184Z,9.75
2022-12-27T06:02:52.971Z,7.05
2022-12-27T06:04:01.082Z,6.43
2022-12-27T06:06:15.838Z,8.40
2022-12-27T06:07:25.906Z,9.55
2022-12-27T06:08:29.514Z,5.75
2022-12-27T06:09:35.551Z,8.90
2022-12-27T06:10:41.207Z,7.68
2022-12-27T06:11:50.236Z,7.20
2022-12-27T06:12:54.160Z,5.05
2022-12-27T06:13:58.701Z,6.40
2022-12-27T06:15:03.230Z,7.78
2022-12-27T06:16:08.271Z,5.45
2022-12-27T06:17:11.123Z,11.75
2022-12-27T06:18:23.269Z,8.57
2022-12-27T06:19:35.212Z,4.68
2022-12-27T06:20:38.052Z,7.70
2022-12-27T06:21:47.104Z,6.18
2022-12-27T06:22:53.903Z,5.72
2022-12-27T06:23:58.213Z,6.78
2022-12-27T06:25:08.702Z,6.90
2022-12-27T06:26:22.113Z,5.55
2022-12-27T16:08:51.534Z,4.07
2022-12-27T16:09:57.166Z,6.90
2022-12-27T16:11:04.817Z,5.38
2022-12-27T16:12:13.434Z,8.20
2022-12-27T16:13:41.394Z,8.10
2022-12-27T16:14:46.551Z,13.48
2022-12-27T16:15:54.721Z,7.15
2022-12-27T16:17:04.230Z,6.23
2022-12-27T16:18:34.539Z,7.57
2022-12-27T16:19:52.055Z,8.10
2022-12-27T16:20:58.333Z,7.15
2022-12-27T16:22:01.232Z,7.97
2022-12-27T16:23:10.597Z,8.27
2022-12-27T16:24:32.232Z,33.42
2022-12-27T16:25:48.162Z,20.48
2022-12-27T16:27:03.914Z,23.40
2022-12-27T16:28:09.531Z,11.20
2022-12-27T16:29:28.636Z,10.00
2022-12-27T16:30:48.692Z,9.23
2022-12-27T16:32:13.494Z,10.10
2022-12-27T16:33:30.940Z,7.78
2022-12-27T16:34:35.134Z,11.68
2022-12-27T16:35:49.230Z,8.40
2022-12-27T16:36:59.492Z,8.75
2022-12-27T16:38:11.226Z,7.60
2022-12-27T16:39:35.760Z,8.45
2022-12-27T16:40:58.571Z,9.32
2022-12-27T16:42:08.604Z,8.27
2022-12-27T16:43:12.295Z,6.70
2022-12-27T16:44:38.205Z,6.53
2022-12-27T16:46:04.867Z,9.65
2022-12-27T16:47:11.290Z,10.93
2022-12-27T16:48:31.901Z,7.75
2022-12-27T16:49:55.436Z,10.60
2022-12-27T16:51:17.558Z,12.63
2022-12-27T16:52:42.323Z,13.38
2022-12-27T16:54:11.866Z,11.40
2022-12-27T16:55:31.813Z,14.48
2022-12-27T16:56:38.354Z,13.10
2022-12-27T16:57:59.652Z,16.13
2022-12-27T16:59:04.880Z,16.33
2022-12-27T17:00:11.627Z,16.70
2022-12-27T17:01:51.908Z,14.20
2022-12-27T17:03:21.009Z,13.63
2022-12-27T17:04:43.922Z,16.02
2022-12-27T17:06:30.653Z,17.13
2022-12-27T17:07:41.135Z,19.10
2022-12-27T17:08:51.623Z,16.02
2022-12-27T17:09:56.828Z,17.30
2022-12-27T17:11:07.062Z,16.98
2022-12-27T17:12:15.450Z,13.43
2022-12-27T17:13:23.754Z,15.63
2022-12-27T17:14:31.100Z,14.18
2022-12-27T17:15:37.562Z,15.90
2022-12-27T17:17:05.160Z,16.13
2022-12-27T17:18:18.401Z,17.50
2022-12-27T17:19:40.991Z,15.38
2022-12-27T17:21:01.435Z,12.40
2022-12-27T17:22:06.911Z,13.63
2022-12-27T17:23:18.467Z,19.15
2022-12-27T17:24:29.568Z,13.93
2022-12-27T17:25:48.622Z,15.73
2022-12-27T17:27:01.235Z,16.52
2022-12-27T17:28:25.011Z,19.55
2022-12-27T17:29:54.406Z,15.93
2022-12-27T17:31:13.657Z,18.98
2022-12-27T17:32:28.391Z,16.83
2022-12-27T17:33:50.337Z,14.70
2022-12-27T17:35:00.555Z,14.00
2022-12-27T17:36:28.956Z,18.80
2022-12-27T17:37:44.438Z,16.63
2022-12-27T17:38:57.986Z,17.75
2022-12-27T17:40:20.446Z,32.13
2022-12-27T17:42:01.727Z,18.67
2022-12-27T17:43:32.979Z,19.50
2022-12-27T17:44:54.078Z,21.33
2022-12-27T17:46:05.492Z,19.30
2022-12-27T17:47:18.059Z,19.73
2022-12-27T17:48:33.605Z,21.48
2022-12-27T17:49:38.336Z,19.48
2022-12-27T17:50:43.610Z,20.73
2022-12-27T17:52:07.695Z,22.42
2022-12-27T17:53:43.046Z,20.40
2022-12-27T17:55:05.576Z,19.15
2022-12-27T17:56:36.599Z,18.13
2022-12-27T17:58:14.594Z,17.75
2022-12-27T17:59:28.552Z,16.92
2022-12-27T18:00:35.798Z,22.90
2022-12-27T18:01:47.646Z,21.67
2022-12-27T18:02:52.349Z,20.55
2022-12-27T18:03:55.984Z,19.77
2022-12-27T18:05:06.300Z,13.90
2022-12-27T18:06:12.380Z,9.07
2022-12-27T18:07:32.434Z,9.88
2022-12-27T18:08:40.768Z,22.85
2022-12-27T18:09:57.700Z,10.52
2022-12-27T18:11:04.646Z,5.82
2022-12-27T18:12:33.077Z,6.53
2022-12-27T18:13:41.634Z,6.18
2022-12-27T18:14:49.203Z,7.70
2022-12-27T18:15:53.522Z,6.70
2022-12-27T18:26:43.615Z,4.45
2022-12-27T18:27:46.336Z,7.28
2022-12-27T18:28:51.547Z,6.38
2022-12-27T18:29:59.823Z,7.10
2022-12-27T18:31:21.892Z,8.93
2022-12-27T18:32:27.163Z,8.82
2022-12-27T18:33:38.719Z,6.60
2022-12-27T18:34:58.734Z,6.45
2022-12-27T18:36:06.143Z,5.60
2022-12-27T18:37:09.691Z,5.90
2022-12-27T18:38:18.065Z,5.75
2022-12-27T18:39:46.656Z,5.53
2022-12-27T18:40:59.635Z,9.02
2022-12-27T18:42:24.785Z,7.15
2022-12-27T18:43:31.592Z,8.07
2022-12-27T18:44:44.866Z,6.40
2022-12-27T18:45:50.664Z,6.50
2022-12-27T18:46:59.124Z,7.55
2022-12-27T18:48:11.719Z,7.50
2022-12-27T18:49:29.822Z,6.30
2022-12-27T18:50:41.938Z,5.20
2022-12-27T18:51:44.557Z,6.60
2022-12-27T18:52:57.173Z,5.70
2022-12-27T18:54:09.943Z,6.65
2022-12-27T18:55:17.755Z,6.07
2022-12-27T18:56:45.843Z,6.72
2022-12-27T18:58:02.894Z,6.35
2022-12-27T18:59:22.664Z,5.78
2022-12-27T19:00:29.476Z,6.43
2022-12-27T19:01:37.275Z,7.03
2022-12-27T19:02:43.348Z,4.85
2022-12-27T19:04:09.606Z,8.05
2022-12-27T19:05:26.547Z,7.50
2022-12-27T19:06:33.931Z,7.38
2022-12-27T19:07:46.694Z,8.32
2022-12-27T19:09:17.689Z,6.53
2022-12-27T19:10:25.132Z,8.82
2022-12-27T19:11:36.456Z,7.00
2022-12-27T19:12:40.693Z,6.95
2022-12-27T19:13:50.177Z,6.88
2022-12-27T19:15:01.851Z,7.40
2022-12-27T19:16:05.602Z,6.38
2022-12-27T19:17:17.679Z,7.28
2022-12-27T19:18:33.397Z,8.23
2022-12-27T19:19:43.484Z,7.20
2022-12-27T19:20:53.034Z,5.90
2022-12-27T19:23:55.381Z,6.63
2022-12-27T19:25:02.315Z,8.05
2022-12-27T19:26:31.383Z,7.65
2022-12-27T19:27:36.834Z,6.13
2022-12-27T19:28:39.204Z,6.53
2022-12-27T19:29:56.521Z,8.00
2022-12-27T19:31:08.984Z,6.22
2022-12-27T19:32:20.263Z,5.18
2022-12-27T19:33:31.216Z,6.63
2022-12-27T19:34:45.926Z,7.95
2022-12-27T19:35:52.638Z,6.57
2022-12-27T19:36:58.430Z,5.85
2022-12-27T19:38:04.821Z,5.38
2022-12-27T19:39:14.752Z,5.85
2022-12-27T19:40:24.967Z,6.70
2022-12-27T19:41:29.984Z,7.85
2022-12-27T19:42:35.229Z,6.00
2022-12-27T19:43:45.019Z,7.13
2022-12-27T19:44:52.585Z,7.57
2022-12-27T19:46:02.192Z,6.40
2022-12-27T19:47:09.662Z,8.40
2022-12-27T19:48:22.951Z,8.98
2022-12-27T19:49:42.872Z,7.97
2022-12-27T19:50:49.948Z,6.38
2022-12-27T19:51:56.181Z,8.70
2022-12-27T19:53:00.543Z,8.43
2022-12-27T19:54:10.817Z,9.73
2022-12-27T19:55:21.210Z,7.40
2022-12-27T19:56:29.407Z,7.20
2022-12-27T19:57:36.929Z,7.72
2022-12-27T19:58:44.688Z,7.00
2022-12-27T19:59:51.795Z,7.82
2022-12-27T20:00:58.784Z,13.50
2022-12-27T20:02:09.116Z,7.95
2022-12-27T20:03:18.570Z,9.88
2022-12-27T20:04:37.076Z,11.60
2022-12-27T20:06:11.601Z,7.80
2022-12-27T20:07:06.390Z,6.57
2022-12-27T20:08:38.375Z,7.47
2022-12-27T20:09:40.607Z,9.70
2022-12-27T20:10:43.902Z,6.55
2022-12-27T20:11:56.475Z,6.70
2022-12-27T20:13:10.702Z,6.72
2022-12-27T20:14:29.195Z,4.95
2022-12-27T20:15:37.628Z,8.05
2022-12-27T20:16:44.950Z,6.95
2022-12-27T20:17:51.660Z,8.15
2022-12-27T20:18:56.360Z,9.18
2022-12-27T20:20:04.665Z,7.25
2022-12-27T20:21:10.453Z,10.23
2022-12-27T20:22:16.609Z,10.55
2022-12-27T20:23:20.841Z,8.30
2022-12-27T20:24:41.221Z,9.57
2022-12-27T20:25:51.140Z,7.18
2022-12-27T20:27:01.341Z,9.13
2022-12-27T20:28:09.538Z,17.27
2022-12-27T20:29:21.245Z,7.35
2022-12-27T20:30:30.741Z,7.50
2022-12-27T20:31:39.060Z,8.32
2022-12-27T20:32:54.361Z,9.13
2022-12-27T20:33:59.136Z,8.77
2022-12-27T20:35:13.100Z,8.38
2022-12-27T20:36:18.724Z,8.77
2022-12-27T20:37:24.877Z,8.82
2022-12-27T20:38:32.374Z,8.68
2022-12-27T20:39:45.589Z,9.25
2022-12-27T20:40:55.204Z,9.55
2022-12-27T20:42:22.491Z,8.83
2022-12-27T20:43:29.597Z,8.18
2022-12-27T20:44:34.739Z,11.48
2022-12-27T20:45:43.204Z,9.60
2022-12-27T20:46:50.373Z,6.88
2022-12-27T20:47:59.588Z,11.13
2022-12-27T20:50:24.765Z,7.95
2022-12-27T20:51:29.534Z,6.63
2022-12-27T20:52:48.412Z,6.70
2022-12-27T20:53:58.281Z,6.05
2022-12-27T20:55:11.835Z,7.53
2022-12-27T20:56:16.076Z,8.65
2022-12-27T20:57:22.962Z,8.02
2022-12-27T20:58:27.155Z,7.75
2022-12-27T20:59:36.130Z,7.18
2022-12-27T21:00:41.761Z,7.82
2022-12-27T21:01:57.064Z,8.32
2022-12-27T21:03:09.529Z,6.55
2022-12-27T21:04:14.745Z,6.47
2022-12-27T21:05:24.147Z,6.00
2022-12-27T21:06:29.195Z,6.45
2022-12-27T21:07:30.971Z,6.05
2022-12-27T21:08:57.239Z,7.72
2022-12-27T21:10:04.028Z,7.20
2022-12-27T21:11:14.931Z,6.57
2022-12-27T21:12:35.295Z,7.25
2022-12-27T21:13:43.357Z,6.82
2022-12-27T21:14:51.724Z,8.90
2022-12-27T21:15:56.606Z,8.77
2022-12-27T21:17:02.307Z,6.90
2022-12-27T21:18:17.876Z,6.47
2022-12-27T21:19:25.370Z,9.43
2022-12-27T21:20:31.173Z,6.15
2022-12-27T21:21:38.412Z,7.38
2022-12-27T21:22:40.558Z,6.50
2022-12-27T21:23:51.631Z,6.63
2022-12-27T21:24:57.369Z,6.47
2022-12-27T21:26:21.993Z,6.32
2022-12-27T21:27:28.364Z,8.05
2022-12-27T21:28:33.098Z,8.13
2022-12-27T21:29:43.117Z,7.70
2022-12-27T21:30:56.699Z,6.22
2022-12-27T21:32:06.707Z,12.15
2022-12-27T21:33:11.228Z,7.45
2022-12-27T21:34:17.799Z,8.85
2022-12-27T21:35:31.699Z,6.43
2022-12-27T21:36:40.855Z,7.05
2022-12-27T21:37:48.860Z,7.40
2022-12-27T21:38:57.195Z,5.82
2022-12-27T21:40:04.729Z,5.38
2022-12-27T21:41:10.649Z,6.28
2022-12-27T21:42:23.906Z,8.07
2022-12-27T21:43:31.996Z,5.72
2022-12-27T21:44:36.413Z,5.10
2022-12-27T22:22:17.174Z,4.80
2022-12-27T22:23:20.415Z,5.68
2022-12-27T22:24:25.327Z,4.72
2022-12-27T22:25:29.787Z,6.32
2022-12-27T22:26:40.759Z,8.30
2022-12-27T22:27:44.906Z,6.63
2022-12-27T22:28:48.703Z,6.05
2022-12-27T22:29:55.298Z,4.97
2022-12-27T22:30:57.203Z,5.97
2022-12-27T22:32:04.441Z,7.32
2022-12-27T22:33:12.572Z,5.63
2022-12-27T22:34:16.860Z,7.05
2022-12-27T22:35:26.346Z,5.15
2022-12-27T22:36:30.269Z,4.53
2022-12-27T22:37:35.018Z,5.78
2022-12-27T22:38:40.837Z,4.75
2022-12-27T23:30:59.092Z,7.85
2022-12-27T23:32:06.135Z,5.57
2022-12-27T23:33:08.901Z,6.07
2022-12-27T23:34:13.589Z,6.57
2022-12-27T23:35:19.871Z,6.60
2022-12-27T23:36:29.375Z,4.43
2022-12-27T23:37:31.867Z,7.63
2022-12-27T23:38:42.446Z,5.53
2022-12-27T23:39:48.165Z,5.45
2022-12-27T23:41:00.907Z,5.95
2022-12-27T23:42:03.961Z,6.30
2022-12-27T23:43:42.209Z,5.40
2022-12-27T23:44:34.958Z,5.45
2022-12-27T23:45:38.146Z,4.15
2022-12-27T23:46:44.848Z,5.22
2022-12-27T23:47:51.657Z,5.22
2022-12-27T23:49:05.206Z,4.45
2022-12-27T23:50:08.559Z,6.63
2022-12-27T23:51:14.432Z,4.97
2022-12-27T23:52:18.669Z,6.07
2022-12-27T23:53:24.043Z,6.63
2022-12-27T23:54:30.510Z,4.82
2022-12-27T23:55:42.106Z,5.88
2022-12-27T23:57:19.952Z,4.70
2022-12-27T23:58:37.421Z,4.43
2022-12-27T23:59:42.141Z,7.32
